Terminal Aerodrome Forecast
Issued by NWS

Home | Current Version | Previous Version | Text Only | Print | Product List | Glossary On
Versions: 1 2 3 4 5 6 7 8 9 10 11 12
000
FTUS46 KSGX 201700
TAFPSP
TAF
KPSP 201722Z 2018/2118 VRB06KT P6SM SCT110
     FM210100 32012KT P6SM SKC
     FM210700 VRB06KT P6SM SKC=

USA.gov is the U.S. government's official web portal to all federal, state and local government web resources and services.